sensor_id;sensor_type;location;lat;lon;timestamp;P1;durP1;ratioP1;P2;durP2;ratioP2
54823;SDS011;40724;53.196;5.980;2022-12-11T00:01:20;94.05;;;34.15;;
54823;SDS011;40724;53.196;5.980;2022-12-11T00:03:46;91.95;;;36.50;;
54823;SDS011;40724;53.196;5.980;2022-12-11T00:06:14;75.63;;;35.10;;
54823;SDS011;40724;53.196;5.980;2022-12-11T00:08:40;79.60;;;34.10;;
54823;SDS011;40724;53.196;5.980;2022-12-11T00:11:07;83.95;;;33.88;;
54823;SDS011;40724;53.196;5.980;2022-12-11T00:13:33;86.63;;;35.05;;
54823;SDS011;40724;53.196;5.980;2022-12-11T00:16:00;77.25;;;34.15;;
54823;SDS011;40724;53.196;5.980;2022-12-11T00:18:26;80.95;;;32.60;;
54823;SDS011;40724;53.196;5.980;2022-12-11T00:20:52;90.55;;;37.92;;
54823;SDS011;40724;53.196;5.980;2022-12-11T00:23:18;79.15;;;35.55;;
54823;SDS011;40724;53.196;5.980;2022-12-11T00:25:45;78.90;;;30.95;;
54823;SDS011;40724;53.196;5.980;2022-12-11T00:28:13;74.70;;;33.28;;
54823;SDS011;40724;53.196;5.980;2022-12-11T00:30:39;82.53;;;37.80;;
54823;SDS011;40724;53.196;5.980;2022-12-11T00:33:06;63.35;;;31.42;;
54823;SDS011;40724;53.196;5.980;2022-12-11T00:35:32;67.10;;;32.42;;
54823;SDS011;40724;53.196;5.980;2022-12-11T00:37:58;75.53;;;32.35;;
54823;SDS011;40724;53.196;5.980;2022-12-11T00:40:24;71.32;;;31.10;;
54823;SDS011;40724;53.196;5.980;2022-12-11T00:42:51;71.50;;;30.17;;
54823;SDS011;40724;53.196;5.980;2022-12-11T00:45:17;67.18;;;32.35;;
54823;SDS011;40724;53.196;5.980;2022-12-11T00:47:43;67.85;;;31.90;;
54823;SDS011;40724;53.196;5.980;2022-12-11T00:50:09;73.50;;;29.70;;
54823;SDS011;40724;53.196;5.980;2022-12-11T00:52:36;72.15;;;33.08;;
54823;SDS011;40724;53.196;5.980;2022-12-11T00:55:03;71.30;;;31.20;;
54823;SDS011;40724;53.196;5.980;2022-12-11T00:57:29;63.85;;;29.80;;
54823;SDS011;40724;53.196;5.980;2022-12-11T00:59:55;64.90;;;30.52;;
54823;SDS011;40724;53.196;5.980;2022-12-11T01:02:21;59.63;;;30.17;;
54823;SDS011;40724;53.196;5.980;2022-12-11T01:04:47;58.70;;;29.15;;
54823;SDS011;40724;53.196;5.980;2022-12-11T01:07:13;61.17;;;30.42;;
54823;SDS011;40724;53.196;5.980;2022-12-11T01:09:39;69.57;;;29.60;;
54823;SDS011;40724;53.196;5.980;2022-12-11T01:12:24;71.72;;;28.98;;
54823;SDS011;40724;53.196;5.980;2022-12-11T01:14:52;73.53;;;29.90;;
54823;SDS011;40724;53.196;5.980;2022-12-11T01:17:19;59.05;;;28.73;;
54823;SDS011;40724;53.196;5.980;2022-12-11T01:19:45;56.20;;;27.35;;
54823;SDS011;40724;53.196;5.980;2022-12-11T01:22:11;73.40;;;33.45;;
54823;SDS011;40724;53.196;5.980;2022-12-11T01:24:37;62.17;;;29.77;;
54823;SDS011;40724;53.196;5.980;2022-12-11T01:27:04;65.50;;;30.38;;
54823;SDS011;40724;53.196;5.980;2022-12-11T01:29:30;89.85;;;31.67;;
54823;SDS011;40724;53.196;5.980;2022-12-11T01:31:56;57.10;;;29.98;;
54823;SDS011;40724;53.196;5.980;2022-12-11T01:34:23;57.35;;;26.98;;
54823;SDS011;40724;53.196;5.980;2022-12-11T01:36:50;69.05;;;31.17;;
54823;SDS011;40724;53.196;5.980;2022-12-11T01:39:16;69.40;;;30.85;;
54823;SDS011;40724;53.196;5.980;2022-12-11T01:41:43;72.32;;;28.30;;
54823;SDS011;40724;53.196;5.980;2022-12-11T01:46:41;55.58;;;29.63;;
54823;SDS011;40724;53.196;5.980;2022-12-11T01:49:09;66.50;;;31.80;;
54823;SDS011;40724;53.196;5.980;2022-12-11T01:51:40;61.92;;;27.55;;
54823;SDS011;40724;53.196;5.980;2022-12-11T01:56:35;65.72;;;26.85;;
54823;SDS011;40724;53.196;5.980;2022-12-11T01:59:03;60.78;;;28.58;;
54823;SDS011;40724;53.196;5.980;2022-12-11T02:01:36;65.72;;;29.58;;
54823;SDS011;40724;53.196;5.980;2022-12-11T02:06:31;81.47;;;30.80;;
54823;SDS011;40724;53.196;5.980;2022-12-11T02:08:58;65.25;;;30.42;;
54823;SDS011;40724;53.196;5.980;2022-12-11T02:11:25;72.00;;;31.33;;
54823;SDS011;40724;53.196;5.980;2022-12-11T02:16:58;62.58;;;29.40;;
54823;SDS011;40724;53.196;5.980;2022-12-11T02:21:58;85.35;;;29.67;;
54823;SDS011;40724;53.196;5.980;2022-12-11T02:26:55;70.20;;;30.83;;
54823;SDS011;40724;53.196;5.980;2022-12-11T02:29:48;69.50;;;33.15;;
54823;SDS011;40724;53.196;5.980;2022-12-11T02:35:06;75.20;;;31.20;;
54823;SDS011;40724;53.196;5.980;2022-12-11T02:37:30;57.92;;;29.23;;
54823;SDS011;40724;53.196;5.980;2022-12-11T02:39:57;71.68;;;30.85;;
54823;SDS011;40724;53.196;5.980;2022-12-11T02:42:24;68.38;;;31.42;;
54823;SDS011;40724;53.196;5.980;2022-12-11T02:44:52;73.93;;;30.45;;
54823;SDS011;40724;53.196;5.980;2022-12-11T02:47:20;72.38;;;32.03;;
54823;SDS011;40724;53.196;5.980;2022-12-11T02:49:47;71.65;;;34.95;;
54823;SDS011;40724;53.196;5.980;2022-12-11T02:52:15;69.90;;;30.52;;
54823;SDS011;40724;53.196;5.980;2022-12-11T02:54:42;95.13;;;36.17;;
54823;SDS011;40724;53.196;5.980;2022-12-11T02:59:44;74.10;;;31.95;;
54823;SDS011;40724;53.196;5.980;2022-12-11T03:02:11;85.93;;;35.92;;
54823;SDS011;40724;53.196;5.980;2022-12-11T03:04:38;83.82;;;34.33;;
54823;SDS011;40724;53.196;5.980;2022-12-11T03:07:07;84.50;;;34.80;;
54823;SDS011;40724;53.196;5.980;2022-12-11T03:09:40;81.35;;;38.22;;
54823;SDS011;40724;53.196;5.980;2022-12-11T03:12:07;71.13;;;33.38;;
54823;SDS011;40724;53.196;5.980;2022-12-11T03:14:35;76.40;;;34.70;;
54823;SDS011;40724;53.196;5.980;2022-12-11T03:17:13;88.93;;;35.35;;
54823;SDS011;40724;53.196;5.980;2022-12-11T03:22:09;67.60;;;32.50;;
54823;SDS011;40724;53.196;5.980;2022-12-11T03:27:10;81.75;;;35.63;;
54823;SDS011;40724;53.196;5.980;2022-12-11T03:29:40;79.63;;;36.25;;
54823;SDS011;40724;53.196;5.980;2022-12-11T03:32:12;74.80;;;32.03;;
54823;SDS011;40724;53.196;5.980;2022-12-11T03:37:05;60.28;;;29.75;;
54823;SDS011;40724;53.196;5.980;2022-12-11T03:39:34;73.93;;;34.08;;
54823;SDS011;40724;53.196;5.980;2022-12-11T03:42:02;76.28;;;34.28;;
54823;SDS011;40724;53.196;5.980;2022-12-11T03:44:28;81.45;;;34.58;;
54823;SDS011;40724;53.196;5.980;2022-12-11T03:46:57;75.30;;;34.03;;
54823;SDS011;40724;53.196;5.980;2022-12-11T03:49:26;76.63;;;33.90;;
54823;SDS011;40724;53.196;5.980;2022-12-11T03:51:53;88.93;;;37.20;;
54823;SDS011;40724;53.196;5.980;2022-12-11T03:54:20;90.80;;;35.95;;
54823;SDS011;40724;53.196;5.980;2022-12-11T03:56:47;77.03;;;34.40;;
54823;SDS011;40724;53.196;5.980;2022-12-11T03:59:16;77.97;;;35.13;;
54823;SDS011;40724;53.196;5.980;2022-12-11T04:01:42;96.25;;;37.50;;
54823;SDS011;40724;53.196;5.980;2022-12-11T04:04:08;86.68;;;34.55;;
54823;SDS011;40724;53.196;5.980;2022-12-11T04:06:34;73.47;;;34.75;;
54823;SDS011;40724;53.196;5.980;2022-12-11T04:09:00;81.53;;;37.17;;
54823;SDS011;40724;53.196;5.980;2022-12-11T04:11:26;86.25;;;34.95;;
54823;SDS011;40724;53.196;5.980;2022-12-11T04:13:59;79.63;;;35.23;;
54823;SDS011;40724;53.196;5.980;2022-12-11T04:16:44;69.80;;;32.10;;
54823;SDS011;40724;53.196;5.980;2022-12-11T04:19:10;78.18;;;31.20;;
54823;SDS011;40724;53.196;5.980;2022-12-11T04:21:55;63.15;;;32.65;;
54823;SDS011;40724;53.196;5.980;2022-12-11T04:24:39;78.30;;;35.85;;
54823;SDS011;40724;53.196;5.980;2022-12-11T04:27:06;71.45;;;35.55;;
54823;SDS011;40724;53.196;5.980;2022-12-11T04:29:32;71.50;;;33.65;;
54823;SDS011;40724;53.196;5.980;2022-12-11T04:31:58;63.63;;;30.67;;
54823;SDS011;40724;53.196;5.980;2022-12-11T04:34:24;79.63;;;33.85;;
54823;SDS011;40724;53.196;5.980;2022-12-11T04:36:50;80.18;;;34.88;;
54823;SDS011;40724;53.196;5.980;2022-12-11T04:39:16;69.30;;;32.03;;
54823;SDS011;40724;53.196;5.980;2022-12-11T04:41:43;100.63;;;34.28;;
54823;SDS011;40724;53.196;5.980;2022-12-11T04:44:09;65.65;;;33.15;;
54823;SDS011;40724;53.196;5.980;2022-12-11T04:46:35;81.10;;;35.85;;
54823;SDS011;40724;53.196;5.980;2022-12-11T04:49:01;76.43;;;33.55;;
54823;SDS011;40724;53.196;5.980;2022-12-11T04:51:27;85.88;;;33.80;;
54823;SDS011;40724;53.196;5.980;2022-12-11T04:53:54;73.88;;;32.58;;
54823;SDS011;40724;53.196;5.980;2022-12-11T04:56:20;73.60;;;34.63;;
54823;SDS011;40724;53.196;5.980;2022-12-11T04:58:46;77.53;;;32.88;;
54823;SDS011;40724;53.196;5.980;2022-12-11T05:01:17;75.38;;;33.63;;
54823;SDS011;40724;53.196;5.980;2022-12-11T05:03:43;79.05;;;35.97;;
54823;SDS011;40724;53.196;5.980;2022-12-11T05:06:10;72.90;;;31.48;;
54823;SDS011;40724;53.196;5.980;2022-12-11T05:08:37;71.95;;;31.02;;
54823;SDS011;40724;53.196;5.980;2022-12-11T05:11:05;70.32;;;33.85;;
54823;SDS011;40724;53.196;5.980;2022-12-11T05:13:32;74.00;;;31.55;;
54823;SDS011;40724;53.196;5.980;2022-12-11T05:15:58;76.90;;;34.95;;
54823;SDS011;40724;53.196;5.980;2022-12-11T05:18:24;77.50;;;33.55;;
54823;SDS011;40724;53.196;5.980;2022-12-11T05:20:54;78.75;;;31.15;;
54823;SDS011;40724;53.196;5.980;2022-12-11T05:23:21;73.80;;;32.17;;
54823;SDS011;40724;53.196;5.980;2022-12-11T05:26:20;70.35;;;31.95;;
54823;SDS011;40724;53.196;5.980;2022-12-11T05:28:40;58.03;;;30.15;;
54823;SDS011;40724;53.196;5.980;2022-12-11T05:31:07;67.63;;;33.35;;
54823;SDS011;40724;53.196;5.980;2022-12-11T05:33:33;69.25;;;33.83;;
54823;SDS011;40724;53.196;5.980;2022-12-11T05:35:59;64.03;;;31.48;;
54823;SDS011;40724;53.196;5.980;2022-12-11T05:38:26;70.13;;;32.88;;
54823;SDS011;40724;53.196;5.980;2022-12-11T05:40:55;67.45;;;29.40;;
54823;SDS011;40724;53.196;5.980;2022-12-11T05:43:22;67.78;;;30.15;;
54823;SDS011;40724;53.196;5.980;2022-12-11T05:45:48;69.45;;;32.80;;
54823;SDS011;40724;53.196;5.980;2022-12-11T05:48:14;67.55;;;30.63;;
54823;SDS011;40724;53.196;5.980;2022-12-11T05:50:40;61.55;;;31.13;;
54823;SDS011;40724;53.196;5.980;2022-12-11T05:53:06;66.82;;;29.88;;
54823;SDS011;40724;53.196;5.980;2022-12-11T05:55:33;64.78;;;30.17;;
54823;SDS011;40724;53.196;5.980;2022-12-11T05:57:59;64.57;;;27.55;;
54823;SDS011;40724;53.196;5.980;2022-12-11T06:00:25;69.40;;;29.38;;
54823;SDS011;40724;53.196;5.980;2022-12-11T06:02:51;61.15;;;28.58;;
54823;SDS011;40724;53.196;5.980;2022-12-11T06:05:17;65.50;;;27.08;;
54823;SDS011;40724;53.196;5.980;2022-12-11T06:07:43;74.93;;;29.30;;
54823;SDS011;40724;53.196;5.980;2022-12-11T06:10:10;67.82;;;29.33;;
54823;SDS011;40724;53.196;5.980;2022-12-11T06:12:36;57.67;;;27.20;;
54823;SDS011;40724;53.196;5.980;2022-12-11T06:15:02;71.60;;;30.63;;
54823;SDS011;40724;53.196;5.980;2022-12-11T06:17:29;60.88;;;27.08;;
54823;SDS011;40724;53.196;5.980;2022-12-11T06:19:55;60.72;;;27.05;;
54823;SDS011;40724;53.196;5.980;2022-12-11T06:22:21;62.28;;;30.02;;
54823;SDS011;40724;53.196;5.980;2022-12-11T06:24:48;64.57;;;28.25;;
54823;SDS011;40724;53.196;5.980;2022-12-11T06:27:14;64.10;;;27.30;;
54823;SDS011;40724;53.196;5.980;2022-12-11T06:29:40;53.80;;;23.90;;
54823;SDS011;40724;53.196;5.980;2022-12-11T06:32:06;62.08;;;28.30;;
54823;SDS011;40724;53.196;5.980;2022-12-11T06:34:32;60.03;;;28.10;;
54823;SDS011;40724;53.196;5.980;2022-12-11T06:36:58;58.00;;;26.55;;
54823;SDS011;40724;53.196;5.980;2022-12-11T06:39:24;54.10;;;27.02;;
54823;SDS011;40724;53.196;5.980;2022-12-11T06:41:50;55.85;;;25.17;;
54823;SDS011;40724;53.196;5.980;2022-12-11T06:44:16;67.80;;;30.50;;
54823;SDS011;40724;53.196;5.980;2022-12-11T06:46:42;57.97;;;28.70;;
54823;SDS011;40724;53.196;5.980;2022-12-11T06:49:09;56.80;;;27.52;;
54823;SDS011;40724;53.196;5.980;2022-12-11T06:51:35;53.50;;;26.58;;
54823;SDS011;40724;53.196;5.980;2022-12-11T06:54:01;54.72;;;26.67;;
54823;SDS011;40724;53.196;5.980;2022-12-11T06:56:27;50.35;;;27.58;;
54823;SDS011;40724;53.196;5.980;2022-12-11T06:58:53;63.25;;;27.38;;
54823;SDS011;40724;53.196;5.980;2022-12-11T07:01:25;70.18;;;29.45;;
54823;SDS011;40724;53.196;5.980;2022-12-11T07:03:52;56.90;;;28.42;;
54823;SDS011;40724;53.196;5.980;2022-12-11T07:06:18;59.65;;;28.08;;
54823;SDS011;40724;53.196;5.980;2022-12-11T07:08:45;55.10;;;27.38;;
54823;SDS011;40724;53.196;5.980;2022-12-11T07:11:12;58.33;;;28.13;;
54823;SDS011;40724;53.196;5.980;2022-12-11T07:13:38;69.20;;;29.42;;
54823;SDS011;40724;53.196;5.980;2022-12-11T07:16:06;66.07;;;28.20;;
54823;SDS011;40724;53.196;5.980;2022-12-11T07:18:38;54.00;;;26.10;;
54823;SDS011;40724;53.196;5.980;2022-12-11T07:21:04;56.85;;;28.08;;
54823;SDS011;40724;53.196;5.980;2022-12-11T07:23:31;65.35;;;28.17;;
54823;SDS011;40724;53.196;5.980;2022-12-11T07:25:58;56.50;;;27.88;;
54823;SDS011;40724;53.196;5.980;2022-12-11T07:28:24;56.45;;;28.00;;
54823;SDS011;40724;53.196;5.980;2022-12-11T07:30:50;57.88;;;29.00;;
54823;SDS011;40724;53.196;5.980;2022-12-11T07:33:16;63.67;;;29.05;;
54823;SDS011;40724;53.196;5.980;2022-12-11T07:35:42;56.75;;;29.85;;
54823;SDS011;40724;53.196;5.980;2022-12-11T07:38:09;67.45;;;33.20;;
54823;SDS011;40724;53.196;5.980;2022-12-11T07:40:35;57.85;;;28.75;;
54823;SDS011;40724;53.196;5.980;2022-12-11T07:43:01;68.28;;;28.90;;
54823;SDS011;40724;53.196;5.980;2022-12-11T07:45:27;58.35;;;26.90;;
54823;SDS011;40724;53.196;5.980;2022-12-11T07:47:53;70.22;;;28.40;;
54823;SDS011;40724;53.196;5.980;2022-12-11T07:50:19;69.15;;;30.13;;
54823;SDS011;40724;53.196;5.980;2022-12-11T07:52:45;67.15;;;30.88;;
54823;SDS011;40724;53.196;5.980;2022-12-11T07:55:12;61.13;;;28.33;;
54823;SDS011;40724;53.196;5.980;2022-12-11T07:57:38;55.30;;;28.33;;
54823;SDS011;40724;53.196;5.980;2022-12-11T08:00:05;70.18;;;31.92;;
54823;SDS011;40724;53.196;5.980;2022-12-11T08:02:31;65.13;;;28.75;;
54823;SDS011;40724;53.196;5.980;2022-12-11T08:04:57;65.88;;;32.70;;
54823;SDS011;40724;53.196;5.980;2022-12-11T08:07:23;69.53;;;30.70;;
54823;SDS011;40724;53.196;5.980;2022-12-11T08:09:50;73.18;;;32.33;;
54823;SDS011;40724;53.196;5.980;2022-12-11T08:12:16;60.78;;;29.85;;
54823;SDS011;40724;53.196;5.980;2022-12-11T08:14:42;68.43;;;31.73;;
54823;SDS011;40724;53.196;5.980;2022-12-11T08:17:08;75.30;;;31.65;;
54823;SDS011;40724;53.196;5.980;2022-12-11T08:19:34;72.82;;;32.95;;
54823;SDS011;40724;53.196;5.980;2022-12-11T08:22:00;70.95;;;32.67;;
54823;SDS011;40724;53.196;5.980;2022-12-11T08:24:26;69.72;;;32.67;;
54823;SDS011;40724;53.196;5.980;2022-12-11T08:26:52;63.58;;;29.80;;
54823;SDS011;40724;53.196;5.980;2022-12-11T08:29:19;64.60;;;31.17;;
54823;SDS011;40724;53.196;5.980;2022-12-11T08:31:45;91.18;;;34.85;;
54823;SDS011;40724;53.196;5.980;2022-12-11T08:34:11;69.60;;;31.60;;
54823;SDS011;40724;53.196;5.980;2022-12-11T08:36:38;62.25;;;30.13;;
54823;SDS011;40724;53.196;5.980;2022-12-11T08:39:04;64.03;;;29.20;;
54823;SDS011;40724;53.196;5.980;2022-12-11T08:41:30;73.55;;;32.35;;
54823;SDS011;40724;53.196;5.980;2022-12-11T08:43:57;70.43;;;31.67;;
54823;SDS011;40724;53.196;5.980;2022-12-11T08:46:25;65.82;;;32.95;;
54823;SDS011;40724;53.196;5.980;2022-12-11T08:48:52;73.50;;;31.90;;
54823;SDS011;40724;53.196;5.980;2022-12-11T08:51:20;65.90;;;31.58;;
54823;SDS011;40724;53.196;5.980;2022-12-11T08:53:47;62.42;;;32.33;;
54823;SDS011;40724;53.196;5.980;2022-12-11T08:56:17;64.25;;;32.75;;
54823;SDS011;40724;53.196;5.980;2022-12-11T08:58:44;64.72;;;30.20;;
54823;SDS011;40724;53.196;5.980;2022-12-11T09:01:17;64.10;;;29.58;;
54823;SDS011;40724;53.196;5.980;2022-12-11T09:03:45;64.57;;;29.20;;
54823;SDS011;40724;53.196;5.980;2022-12-11T09:06:12;66.47;;;31.00;;
54823;SDS011;40724;53.196;5.980;2022-12-11T09:08:39;66.95;;;32.15;;
54823;SDS011;40724;53.196;5.980;2022-12-11T09:11:06;68.00;;;31.67;;
54823;SDS011;40724;53.196;5.980;2022-12-11T09:13:33;71.40;;;32.88;;
54823;SDS011;40724;53.196;5.980;2022-12-11T09:15:59;74.63;;;33.33;;
54823;SDS011;40724;53.196;5.980;2022-12-11T09:18:25;56.25;;;29.63;;
54823;SDS011;40724;53.196;5.980;2022-12-11T09:21:01;66.20;;;32.83;;
54823;SDS011;40724;53.196;5.980;2022-12-11T09:23:27;62.35;;;29.52;;
54823;SDS011;40724;53.196;5.980;2022-12-11T09:25:54;75.55;;;31.83;;
54823;SDS011;40724;53.196;5.980;2022-12-11T09:28:20;67.28;;;33.05;;
54823;SDS011;40724;53.196;5.980;2022-12-11T09:30:46;65.85;;;32.63;;
54823;SDS011;40724;53.196;5.980;2022-12-11T09:33:12;71.60;;;33.17;;
54823;SDS011;40724;53.196;5.980;2022-12-11T09:35:38;69.60;;;32.25;;
54823;SDS011;40724;53.196;5.980;2022-12-11T09:38:04;69.45;;;31.55;;
54823;SDS011;40724;53.196;5.980;2022-12-11T09:40:31;59.50;;;30.10;;
54823;SDS011;40724;53.196;5.980;2022-12-11T09:42:59;70.40;;;31.05;;
54823;SDS011;40724;53.196;5.980;2022-12-11T09:45:28;67.07;;;29.75;;
54823;SDS011;40724;53.196;5.980;2022-12-11T09:47:55;57.63;;;27.77;;
54823;SDS011;40724;53.196;5.980;2022-12-11T09:50:25;69.22;;;32.00;;
54823;SDS011;40724;53.196;5.980;2022-12-11T09:55:22;58.00;;;31.20;;
54823;SDS011;40724;53.196;5.980;2022-12-11T10:00:19;57.28;;;29.90;;
54823;SDS011;40724;53.196;5.980;2022-12-11T10:15:44;50.30;;;28.02;;
54823;SDS011;40724;53.196;5.980;2022-12-11T10:18:12;59.53;;;28.83;;
54823;SDS011;40724;53.196;5.980;2022-12-11T10:20:41;51.72;;;28.13;;
54823;SDS011;40724;53.196;5.980;2022-12-11T10:23:14;56.58;;;27.25;;
54823;SDS011;40724;53.196;5.980;2022-12-11T10:25:46;58.72;;;27.58;;
54823;SDS011;40724;53.196;5.980;2022-12-11T10:28:15;62.25;;;31.15;;
54823;SDS011;40724;53.196;5.980;2022-12-11T10:38:19;52.50;;;27.48;;
54823;SDS011;40724;53.196;5.980;2022-12-11T10:40:48;44.65;;;22.75;;
54823;SDS011;40724;53.196;5.980;2022-12-11T10:43:14;48.35;;;24.35;;
54823;SDS011;40724;53.196;5.980;2022-12-11T10:45:48;49.33;;;24.00;;
54823;SDS011;40724;53.196;5.980;2022-12-11T10:48:15;48.42;;;24.92;;
54823;SDS011;40724;53.196;5.980;2022-12-11T10:50:41;52.92;;;25.33;;
54823;SDS011;40724;53.196;5.980;2022-12-11T10:53:19;45.70;;;23.73;;
54823;SDS011;40724;53.196;5.980;2022-12-11T10:55:45;59.90;;;25.48;;
54823;SDS011;40724;53.196;5.980;2022-12-11T10:58:17;54.88;;;23.73;;
54823;SDS011;40724;53.196;5.980;2022-12-11T11:00:44;51.00;;;24.35;;
54823;SDS011;40724;53.196;5.980;2022-12-11T11:03:21;44.42;;;24.83;;
54823;SDS011;40724;53.196;5.980;2022-12-11T11:05:48;46.67;;;24.33;;
54823;SDS011;40724;53.196;5.980;2022-12-11T11:08:19;54.75;;;25.83;;
54823;SDS011;40724;53.196;5.980;2022-12-11T11:13:15;54.15;;;26.10;;
54823;SDS011;40724;53.196;5.980;2022-12-11T11:15:41;41.58;;;22.27;;
54823;SDS011;40724;53.196;5.980;2022-12-11T11:18:22;46.35;;;23.55;;
54823;SDS011;40724;53.196;5.980;2022-12-11T11:20:50;49.33;;;26.92;;
54823;SDS011;40724;53.196;5.980;2022-12-11T11:23:17;51.40;;;24.85;;
54823;SDS011;40724;53.196;5.980;2022-12-11T11:25:51;51.15;;;26.02;;
54823;SDS011;40724;53.196;5.980;2022-12-11T11:28:22;46.47;;;24.17;;
54823;SDS011;40724;53.196;5.980;2022-12-11T11:33:21;54.33;;;24.27;;
54823;SDS011;40724;53.196;5.980;2022-12-11T11:38:18;46.95;;;23.55;;
54823;SDS011;40724;53.196;5.980;2022-12-11T11:40:53;45.50;;;26.02;;
54823;SDS011;40724;53.196;5.980;2022-12-11T11:43:37;46.97;;;24.75;;
54823;SDS011;40724;53.196;5.980;2022-12-11T11:54:25;42.90;;;23.73;;
54823;SDS011;40724;53.196;5.980;2022-12-11T11:56:53;44.17;;;24.30;;
54823;SDS011;40724;53.196;5.980;2022-12-11T11:59:26;54.95;;;28.70;;
54823;SDS011;40724;53.196;5.980;2022-12-11T12:01:55;50.17;;;25.60;;
54823;SDS011;40724;53.196;5.980;2022-12-11T12:04:22;40.28;;;22.45;;
54823;SDS011;40724;53.196;5.980;2022-12-11T12:11:49;47.63;;;23.08;;
54823;SDS011;40724;53.196;5.980;2022-12-11T12:19:48;46.78;;;24.80;;
54823;SDS011;40724;53.196;5.980;2022-12-11T12:22:59;48.22;;;22.98;;
54823;SDS011;40724;53.196;5.980;2022-12-11T12:28:04;44.22;;;22.88;;
54823;SDS011;40724;53.196;5.980;2022-12-11T12:33:56;40.25;;;22.63;;
54823;SDS011;40724;53.196;5.980;2022-12-11T12:36:26;48.30;;;23.00;;
54823;SDS011;40724;53.196;5.980;2022-12-11T12:38:59;46.72;;;24.27;;
54823;SDS011;40724;53.196;5.980;2022-12-11T12:44:17;47.53;;;23.27;;
54823;SDS011;40724;53.196;5.980;2022-12-11T12:49:11;38.88;;;22.70;;
54823;SDS011;40724;53.196;5.980;2022-12-11T12:51:39;42.08;;;22.65;;
54823;SDS011;40724;53.196;5.980;2022-12-11T12:54:05;41.92;;;22.17;;
54823;SDS011;40724;53.196;5.980;2022-12-11T12:56:32;42.42;;;21.70;;
54823;SDS011;40724;53.196;5.980;2022-12-11T12:58:58;39.55;;;22.88;;
54823;SDS011;40724;53.196;5.980;2022-12-11T13:01:25;40.42;;;21.52;;
54823;SDS011;40724;53.196;5.980;2022-12-11T13:06:28;45.40;;;23.42;;
54823;SDS011;40724;53.196;5.980;2022-12-11T13:08:55;38.60;;;21.08;;
54823;SDS011;40724;53.196;5.980;2022-12-11T13:11:29;39.67;;;22.70;;
54823;SDS011;40724;53.196;5.980;2022-12-11T13:16:41;34.45;;;22.13;;
54823;SDS011;40724;53.196;5.980;2022-12-11T13:21:43;41.42;;;22.92;;
54823;SDS011;40724;53.196;5.980;2022-12-11T13:26:46;40.67;;;21.90;;
54823;SDS011;40724;53.196;5.980;2022-12-11T13:32:03;40.72;;;20.48;;
54823;SDS011;40724;53.196;5.980;2022-12-11T13:36:57;37.92;;;21.20;;
54823;SDS011;40724;53.196;5.980;2022-12-11T13:39:28;40.97;;;22.55;;
54823;SDS011;40724;53.196;5.980;2022-12-11T13:42:05;38.67;;;20.85;;
54823;SDS011;40724;53.196;5.980;2022-12-11T13:44:35;38.67;;;21.33;;
54823;SDS011;40724;53.196;5.980;2022-12-11T13:47:04;37.37;;;20.63;;
54823;SDS011;40724;53.196;5.980;2022-12-11T13:49:36;41.42;;;20.55;;
54823;SDS011;40724;53.196;5.980;2022-12-11T13:52:02;35.17;;;19.70;;
54823;SDS011;40724;53.196;5.980;2022-12-11T13:54:30;37.80;;;21.02;;
54823;SDS011;40724;53.196;5.980;2022-12-11T13:56:58;33.97;;;19.20;;
54823;SDS011;40724;53.196;5.980;2022-12-11T13:59:29;38.15;;;21.65;;
54823;SDS011;40724;53.196;5.980;2022-12-11T14:01:57;38.30;;;20.35;;
54823;SDS011;40724;53.196;5.980;2022-12-11T14:04:25;37.20;;;17.55;;
54823;SDS011;40724;53.196;5.980;2022-12-11T14:06:52;36.67;;;19.85;;
54823;SDS011;40724;53.196;5.980;2022-12-11T14:09:20;33.33;;;19.73;;
54823;SDS011;40724;53.196;5.980;2022-12-11T14:11:48;39.95;;;19.35;;
54823;SDS011;40724;53.196;5.980;2022-12-11T14:14:16;31.75;;;16.98;;
54823;SDS011;40724;53.196;5.980;2022-12-11T14:16:45;37.03;;;18.90;;
54823;SDS011;40724;53.196;5.980;2022-12-11T14:19:13;38.40;;;20.13;;
54823;SDS011;40724;53.196;5.980;2022-12-11T14:21:40;35.67;;;19.33;;
54823;SDS011;40724;53.196;5.980;2022-12-11T14:24:09;36.55;;;18.05;;
54823;SDS011;40724;53.196;5.980;2022-12-11T14:26:38;32.33;;;18.02;;
54823;SDS011;40724;53.196;5.980;2022-12-11T14:29:04;32.88;;;16.88;;
54823;SDS011;40724;53.196;5.980;2022-12-11T14:33:59;33.53;;;16.58;;
54823;SDS011;40724;53.196;5.980;2022-12-11T14:36:27;34.58;;;17.70;;
54823;SDS011;40724;53.196;5.980;2022-12-11T14:43:50;38.05;;;17.30;;
54823;SDS011;40724;53.196;5.980;2022-12-11T14:46:24;30.73;;;17.08;;
54823;SDS011;40724;53.196;5.980;2022-12-11T14:48:52;27.33;;;16.10;;
54823;SDS011;40724;53.196;5.980;2022-12-11T14:51:20;37.90;;;19.00;;
54823;SDS011;40724;53.196;5.980;2022-12-11T14:53:47;32.55;;;18.75;;
54823;SDS011;40724;53.196;5.980;2022-12-11T14:56:18;33.70;;;18.13;;
54823;SDS011;40724;53.196;5.980;2022-12-11T14:58:51;33.60;;;18.42;;
54823;SDS011;40724;53.196;5.980;2022-12-11T15:01:28;35.80;;;20.65;;
54823;SDS011;40724;53.196;5.980;2022-12-11T15:06:43;36.10;;;18.45;;
54823;SDS011;40724;53.196;5.980;2022-12-11T15:09:26;36.35;;;19.60;;
54823;SDS011;40724;53.196;5.980;2022-12-11T15:11:54;33.45;;;19.05;;
54823;SDS011;40724;53.196;5.980;2022-12-11T15:14:21;32.45;;;18.42;;
54823;SDS011;40724;53.196;5.980;2022-12-11T15:16:48;37.33;;;20.50;;
54823;SDS011;40724;53.196;5.980;2022-12-11T15:19:26;32.17;;;18.88;;
54823;SDS011;40724;53.196;5.980;2022-12-11T15:21:53;38.78;;;21.42;;
54823;SDS011;40724;53.196;5.980;2022-12-11T15:24:31;30.95;;;18.88;;
54823;SDS011;40724;53.196;5.980;2022-12-11T15:26:59;37.97;;;19.77;;
54823;SDS011;40724;53.196;5.980;2022-12-11T15:32:02;34.47;;;19.70;;
54823;SDS011;40724;53.196;5.980;2022-12-11T15:34:42;42.25;;;20.65;;
54823;SDS011;40724;53.196;5.980;2022-12-11T15:40:04;35.15;;;19.95;;
54823;SDS011;40724;53.196;5.980;2022-12-11T15:42:33;32.03;;;19.95;;
54823;SDS011;40724;53.196;5.980;2022-12-11T15:45:00;34.58;;;21.80;;
54823;SDS011;40724;53.196;5.980;2022-12-11T15:47:28;40.03;;;21.33;;
54823;SDS011;40724;53.196;5.980;2022-12-11T15:49:58;34.58;;;21.85;;
54823;SDS011;40724;53.196;5.980;2022-12-11T15:52:24;34.85;;;19.65;;
54823;SDS011;40724;53.196;5.980;2022-12-11T15:54:50;44.05;;;21.65;;
54823;SDS011;40724;53.196;5.980;2022-12-11T15:57:19;34.70;;;19.17;;
54823;SDS011;40724;53.196;5.980;2022-12-11T15:59:46;35.35;;;19.90;;
54823;SDS011;40724;53.196;5.980;2022-12-11T16:02:13;34.55;;;18.42;;
54823;SDS011;40724;53.196;5.980;2022-12-11T16:04:39;31.13;;;17.45;;
54823;SDS011;40724;53.196;5.980;2022-12-11T16:07:11;32.83;;;19.45;;
54823;SDS011;40724;53.196;5.980;2022-12-11T16:09:38;35.50;;;19.75;;
54823;SDS011;40724;53.196;5.980;2022-12-11T16:12:04;36.03;;;20.50;;
54823;SDS011;40724;53.196;5.980;2022-12-11T16:14:30;36.95;;;19.65;;
54823;SDS011;40724;53.196;5.980;2022-12-11T16:16:56;38.92;;;21.63;;
54823;SDS011;40724;53.196;5.980;2022-12-11T16:19:22;38.95;;;20.60;;
54823;SDS011;40724;53.196;5.980;2022-12-11T16:21:48;41.97;;;22.23;;
54823;SDS011;40724;53.196;5.980;2022-12-11T16:24:15;41.22;;;21.73;;
54823;SDS011;40724;53.196;5.980;2022-12-11T16:26:41;36.97;;;21.23;;
54823;SDS011;40724;53.196;5.980;2022-12-11T16:29:07;36.42;;;20.33;;